Hermiston, OR (97838)

10:20 PM PST on December 03, 2016 (GMT -0800)
West Park Area, JW's Backyard | | Change Station

Elev 460 ft 45.84 °N, 119.30 °W | Updated 36 seconds ago

Mostly Cloudy
Mostly Cloudy
45.5 °F
Feels Like 44 °F
N
4.0
Wind Variable Wind from SSW
Gusts 4.0 mph

Today
High -- | Low -- °F
--% Chance of Precip.
Yesterday
High -- | Low -- °F
Precip. -- in
Pressure 30.14 in
Visibility 10.0 miles
Clouds Mostly Cloudy 8000 ft
Windchill 44 °F
Dew Point 28 °F
Humidity 49%
Rainfall 0.00 in
Snow Depth Not available.
7:21 AM 4:13 PM
Waxing Crescent, 20% visible
METAR KHRI 040553Z AUTO 20009KT 10SM BKN080 07/M01 A3014 RMK AO2 SLP206 T00671006 10100 20056 56009
Pressure 30.14 in
Visibility 10.0 miles
Clouds Mostly Cloudy 8000 ft
Windchill 44 °F
Dew Point 28 °F
Humidity 49%
Rainfall 0.00 in
Snow Depth Not available.
7:21 AM 4:13 PM
Waxing Crescent, 20% visible
METAR KHRI 040553Z AUTO 20009KT 10SM BKN080 07/M01 A3014 RMK AO2 SLP206 T00671006 10100 20056 56009

10-Day Weather Forecast

Almanac

Astronomy

Dec. 03, 2016 Rise Set
Actual Time
Civil Twilight
Nautical Twilight
Astronomical Twilight
Moon
Length of Visible Light
Length of Day
Tomorrow will be .
, % of the Moon is Illuminated

Today's Extremes

State Highs State Lows

Community

WunderPhotos

Upload Photos

1,955,586 photos uploaded!

WunderBlog® & News

Nearby

Air Quality

  Air Quality AQ Index Pollutant
Not available.

Snow Depth

Station Depth Elevation

Earthquake Activity

City Distance Mag. Time & Date
Minimum magnitude displayed is 2.5.

Coastal Water Temperatures

Place Temperature

Stations

Nearby Weather Stations

Station Location Temp. Windchill Dew Point Humidity Wind Precip. Elev Updated Type
                   

Watches & Warnings

There are currently no watches in effect.